Time;durP1;ratioP1;P1;durP2;ratioP2;P2;SDS_P1;SDS_P2;PMS_P1;PMS_P2;Temp;Humidity;BMP_temperature;BMP_pressure;BME280_temperature;BME280_humidity;BME280_pressure;Samples;Min_cycle;Max_cycle;Signal;HPM_P1;HPM_P2
2023/09/16 00:02:11;;;;;;;;;;;14.10;99.90;;;;;;7326027;19;9256;-79
2023/09/16 00:04:40;;;;;;;;;;;14.00;99.90;;;;;;7324540;19;9678;-78
2023/09/16 00:07:08;;;;;;;;;;;14.10;99.90;;;;;;7322813;19;10431;-78
2023/09/16 00:09:40;;;;;;;;;;;14.10;99.90;;;;;;7322325;19;9242;-78
2023/09/16 00:12:09;;;;;;;;;;;14.00;99.90;;;;;;7324126;19;8944;-78
2023/09/16 00:14:39;;;;;;;;;;;13.90;99.90;;;;;;7325701;19;9222;-78
2023/09/16 00:17:10;;;;;;;;;;;13.80;99.90;;;;;;7325932;19;9264;-78
2023/09/16 00:19:39;;;;;;;;;;;13.80;99.90;;;;;;7326098;19;9185;-79
2023/09/16 00:22:10;;;;;;;;;;;13.70;99.90;;;;;;7325379;19;10120;-79
2023/09/16 00:24:42;;;;;;;;;;;13.60;99.90;;;;;;7325916;19;9012;-79
2023/09/16 00:27:30;;;;;;;;;;;13.50;99.90;;;;;;7323731;19;9205;-78
2023/09/16 00:29:59;;;;;;;;;;;13.50;99.90;;;;;;7325252;19;9312;-78
2023/09/16 00:32:29;;;;;;;;;;;13.50;99.90;;;;;;7322928;19;9440;-79
2023/09/16 00:34:58;;;;;;;;;;;13.50;99.90;;;;;;7324584;19;10196;-78
2023/09/16 00:37:27;;;;;;;;;;;13.50;99.90;;;;;;7319327;19;9429;-78
2023/09/16 00:39:58;;;;;;;;;;;13.50;99.90;;;;;;7325365;19;9245;-79
2023/09/16 00:42:27;;;;;;;;;;;13.60;99.90;;;;;;7325150;19;9221;-79
2023/09/16 00:44:56;;;;;;;;;;;13.60;99.90;;;;;;7324105;19;9316;-78
2023/09/16 00:47:25;;;;;;;;;;;13.60;99.90;;;;;;7324603;19;9486;-78
2023/09/16 00:50:17;;;;;;;;;;;13.50;99.90;;;;;;7322935;19;10450;-78
2023/09/16 00:52:53;;;;;;;;;;;13.50;99.90;;;;;;7323391;19;9264;-78
2023/09/16 00:55:26;;;;;;;;;;;13.50;99.90;;;;;;7324058;19;9222;-78
2023/09/16 00:57:58;;;;;;;;;;;13.60;99.90;;;;;;7324703;19;9221;-79
2023/09/16 01:00:29;;;;;;;;;;;13.60;99.90;;;;;;7323804;19;9248;-78
2023/09/16 01:03:00;;;;;;;;;;;13.40;99.90;;;;;;7323124;19;9520;-78
2023/09/16 01:05:30;;;;;;;;;;;13.50;99.90;;;;;;7324517;19;9254;-78
2023/09/16 01:08:00;;;;;;;;;;;13.40;99.90;;;;;;7325816;19;9263;-78
2023/09/16 01:10:32;;;;;;;;;;;13.30;99.90;;;;;;7328801;19;9266;-78
2023/09/16 01:13:02;;;;;;;;;;;13.20;99.90;;;;;;7330327;19;10620;-78
2023/09/16 01:15:37;;;;;;;;;;;13.30;99.90;;;;;;7326052;19;9497;-79
2023/09/16 01:18:14;;;;;;;;;;;13.30;99.90;;;;;;7324482;19;9269;-78
2023/09/16 01:20:45;;;;;;;;;;;13.20;99.90;;;;;;7320998;19;9232;-79
2023/09/16 01:23:14;;;;;;;;;;;13.10;99.90;;;;;;7323440;19;9223;-78
2023/09/16 01:25:45;;;;;;;;;;;13.20;99.90;;;;;;7325334;19;9240;-78
2023/09/16 01:28:14;;;;;;;;;;;13.20;99.90;;;;;;7325458;19;9255;-78
2023/09/16 01:30:50;;;;;;;;;;;13.10;99.90;;;;;;7325787;19;9260;-78
2023/09/16 01:33:26;;;;;;;;;;;13.10;99.90;;;;;;7325026;19;9462;-78
2023/09/16 01:36:10;;;;;;;;;;;13.10;99.90;;;;;;7324551;19;9278;-78
2023/09/16 01:38:42;;;;;;;;;;;13.00;99.90;;;;;;7321497;19;9428;-78
2023/09/16 01:41:19;;;;;;;;;;;13.00;99.90;;;;;;7323821;19;9255;-78
2023/09/16 01:43:48;;;;;;;;;;;13.00;99.90;;;;;;7322409;19;10270;-78
2023/09/16 01:46:17;;;;;;;;;;;13.10;99.90;;;;;;7322174;19;10329;-80
2023/09/16 01:48:46;;;;;;;;;;;13.10;99.90;;;;;;7322203;19;10494;-79
2023/09/16 01:51:17;;;;;;;;;;;13.10;99.90;;;;;;7323490;19;9732;-79
2023/09/16 01:53:46;;;;;;;;;;;13.20;99.90;;;;;;7322678;19;9250;-78
2023/09/16 01:56:17;;;;;;;;;;;13.10;99.90;;;;;;7321765;19;9554;-79
2023/09/16 01:58:46;;;;;;;;;;;13.10;99.90;;;;;;7320214;19;9482;-79
2023/09/16 02:01:17;;;;;;;;;;;13.10;99.90;;;;;;7322821;19;9279;-79
2023/09/16 02:03:46;;;;;;;;;;;13.10;99.90;;;;;;7321391;19;9124;-79
2023/09/16 02:06:15;;;;;;;;;;;13.10;99.90;;;;;;7321541;19;9434;-78
2023/09/16 02:08:44;;;;;;;;;;;13.00;99.90;;;;;;7321508;19;9524;-78
2023/09/16 02:11:13;;;;;;;;;;;13.10;99.90;;;;;;7321394;19;9273;-78
2023/09/16 02:13:45;;;;;;;;;;;13.00;99.90;;;;;;7320771;19;9377;-79
2023/09/16 02:16:14;;;;;;;;;;;13.00;99.90;;;;;;7323335;19;9229;-79
2023/09/16 02:18:43;;;;;;;;;;;13.00;99.90;;;;;;7322678;19;9218;-78
2023/09/16 02:21:12;;;;;;;;;;;13.10;99.90;;;;;;7322263;19;9246;-78
2023/09/16 02:23:41;;;;;;;;;;;13.10;99.90;;;;;;7322538;19;9289;-79
2023/09/16 02:26:10;;;;;;;;;;;13.10;99.90;;;;;;7322327;19;9338;-79
2023/09/16 02:28:40;;;;;;;;;;;13.20;99.90;;;;;;7323062;19;10377;-79
2023/09/16 02:31:11;;;;;;;;;;;13.20;99.90;;;;;;7322071;19;9340;-79
2023/09/16 02:33:40;;;;;;;;;;;13.20;99.90;;;;;;7321893;19;9510;-79
2023/09/16 02:36:10;;;;;;;;;;;13.20;99.90;;;;;;7318909;19;9210;-78
2023/09/16 02:38:39;;;;;;;;;;;13.10;99.90;;;;;;7319906;19;9312;-78
2023/09/16 02:41:08;;;;;;;;;;;13.00;99.90;;;;;;7320962;19;11203;-78
2023/09/16 02:43:39;;;;;;;;;;;13.10;99.90;;;;;;7322161;19;9242;-78
2023/09/16 02:46:11;;;;;;;;;;;13.10;99.90;;;;;;7320155;19;11190;-78
2023/09/16 02:48:40;;;;;;;;;;;13.20;99.90;;;;;;7321557;19;9616;-78
2023/09/16 02:51:11;;;;;;;;;;;13.20;99.90;;;;;;7321029;19;9400;-78
2023/09/16 02:54:01;;;;;;;;;;;13.10;99.90;;;;;;7318979;19;9210;-79
2023/09/16 02:56:30;;;;;;;;;;;13.10;99.90;;;;;;7321108;19;9207;-79
2023/09/16 02:58:59;;;;;;;;;;;13.00;99.90;;;;;;7321190;19;9194;-79
2023/09/16 03:01:31;;;;;;;;;;;13.10;99.90;;;;;;7321116;19;9328;-78
2023/09/16 03:04:00;;;;;;;;;;;13.10;99.90;;;;;;7321019;19;9385;-78
2023/09/16 03:06:29;;;;;;;;;;;13.10;99.90;;;;;;7319749;19;9270;-79
2023/09/16 03:08:58;;;;;;;;;;;13.10;99.90;;;;;;7319597;19;9498;-79
2023/09/16 03:11:27;;;;;;;;;;;13.10;99.90;;;;;;7320139;19;9153;-79
2023/09/16 03:13:56;;;;;;;;;;;13.10;99.90;;;;;;7319884;19;10147;-78
2023/09/16 03:16:26;;;;;;;;;;;13.10;99.90;;;;;;7321458;19;9200;-79
2023/09/16 03:18:57;;;;;;;;;;;13.10;99.90;;;;;;7323018;19;9524;-79
2023/09/16 03:21:27;;;;;;;;;;;13.10;99.90;;;;;;7324871;19;9004;-79
2023/09/16 03:23:54;;;;;;;;;;;13.10;99.90;;;;;;7322571;19;9574;-79
2023/09/16 03:26:23;;;;;;;;;;;13.00;99.90;;;;;;7327065;19;10064;-79
2023/09/16 03:28:57;;;;;;;;;;;13.10;99.90;;;;;;7326094;19;9109;-79
2023/09/16 03:31:25;;;;;;;;;;;13.00;99.90;;;;;;7326753;19;9254;-79
2023/09/16 03:33:57;;;;;;;;;;;13.00;99.90;;;;;;7326145;19;10131;-78
2023/09/16 03:36:26;;;;;;;;;;;13.10;99.90;;;;;;7324592;19;9288;-78
2023/09/16 03:38:55;;;;;;;;;;;13.10;99.90;;;;;;7323257;19;9154;-78
2023/09/16 03:41:24;;;;;;;;;;;13.10;99.90;;;;;;7325911;19;9459;-79
2023/09/16 03:43:53;;;;;;;;;;;13.00;99.90;;;;;;7326204;19;9257;-79
2023/09/16 03:46:23;;;;;;;;;;;13.00;99.90;;;;;;7325102;19;9191;-79
2023/09/16 03:48:52;;;;;;;;;;;13.00;99.90;;;;;;7326929;19;9568;-78
2023/09/16 03:51:26;;;;;;;;;;;13.10;99.90;;;;;;7327422;19;9469;-79
2023/09/16 03:53:56;;;;;;;;;;;13.10;99.90;;;;;;7325800;19;9483;-79
2023/09/16 03:56:24;;;;;;;;;;;13.10;99.90;;;;;;7326887;19;9109;-78
2023/09/16 03:58:55;;;;;;;;;;;13.10;99.90;;;;;;7325079;19;8944;-79
2023/09/16 04:01:24;;;;;;;;;;;13.10;99.90;;;;;;7325565;19;9226;-79
2023/09/16 04:03:54;;;;;;;;;;;13.10;99.90;;;;;;7325755;19;9214;-79
2023/09/16 04:06:26;;;;;;;;;;;13.10;99.90;;;;;;7323052;19;9128;-78
2023/09/16 04:09:16;;;;;;;;;;;13.00;99.90;;;;;;7324611;19;9493;-78
2023/09/16 04:11:45;;;;;;;;;;;12.90;99.90;;;;;;7326029;19;9524;-78
2023/09/16 04:14:13;;;;;;;;;;;13.00;99.90;;;;;;7326352;19;9513;-79
2023/09/16 04:16:43;;;;;;;;;;;12.90;99.90;;;;;;7325426;19;9658;-79
2023/09/16 04:19:12;;;;;;;;;;;12.90;99.90;;;;;;7325100;19;10329;-79
2023/09/16 04:21:46;;;;;;;;;;;12.90;99.90;;;;;;7323381;19;8997;-79
2023/09/16 04:24:15;;;;;;;;;;;12.80;99.90;;;;;;7324979;19;9320;-79
2023/09/16 04:26:44;;;;;;;;;;;12.90;99.90;;;;;;7325744;19;9513;-78
2023/09/16 04:29:13;;;;;;;;;;;12.90;99.90;;;;;;7325846;19;9208;-79
2023/09/16 04:31:42;;;;;;;;;;;12.80;99.90;;;;;;7325444;19;9226;-79
2023/09/16 04:34:10;;;;;;;;;;;12.80;99.90;;;;;;7325147;19;9040;-78
2023/09/16 04:37:03;;;;;;;;;;;12.80;99.90;;;;;;7318995;19;9351;-78
2023/09/16 04:39:31;;;;;;;;;;;12.70;99.90;;;;;;7324744;19;9129;-79
2023/09/16 04:42:02;;;;;;;;;;;12.70;99.90;;;;;;7325476;19;9478;-78
2023/09/16 04:44:38;;;;;;;;;;;12.70;99.90;;;;;;7323827;19;9178;-78
2023/09/16 04:47:08;;;;;;;;;;;12.70;99.90;;;;;;7325417;19;10418;-79
2023/09/16 04:49:37;;;;;;;;;;;12.70;99.90;;;;;;7324283;19;9202;-79
2023/09/16 04:52:08;;;;;;;;;;;12.70;99.90;;;;;;7325355;19;9214;-79
2023/09/16 04:54:38;;;;;;;;;;;12.60;99.90;;;;;;7323964;19;9183;-79
2023/09/16 04:57:07;;;;;;;;;;;12.70;99.90;;;;;;7324088;19;9141;-79
2023/09/16 04:59:36;;;;;;;;;;;12.70;99.90;;;;;;7324439;19;9210;-79
2023/09/16 05:02:05;;;;;;;;;;;12.60;99.90;;;;;;7323741;19;9295;-79
2023/09/16 05:04:35;;;;;;;;;;;12.50;99.90;;;;;;7324848;19;10677;-78
2023/09/16 05:07:04;;;;;;;;;;;12.60;99.90;;;;;;7319629;19;9212;-79
2023/09/16 05:09:37;;;;;;;;;;;12.60;99.90;;;;;;7323999;19;9294;-79
2023/09/16 05:12:07;;;;;;;;;;;12.50;99.90;;;;;;7323334;19;9218;-79
2023/09/16 05:14:36;;;;;;;;;;;12.50;99.90;;;;;;7324150;19;9235;-79
2023/09/16 05:17:05;;;;;;;;;;;12.50;99.90;;;;;;7324191;19;9472;-79
2023/09/16 05:19:34;;;;;;;;;;;12.40;99.90;;;;;;7324153;19;11613;-78
2023/09/16 05:22:04;;;;;;;;;;;12.40;99.90;;;;;;7323728;19;9210;-79
2023/09/16 05:24:55;;;;;;;;;;;12.50;99.90;;;;;;7321927;19;9543;-78
2023/09/16 05:27:24;;;;;;;;;;;12.50;99.90;;;;;;7324078;19;9281;-79
2023/09/16 05:29:56;;;;;;;;;;;12.50;99.90;;;;;;7326850;19;9236;-79
2023/09/16 05:32:25;;;;;;;;;;;12.50;99.90;;;;;;7325004;19;9190;-79
2023/09/16 05:34:54;;;;;;;;;;;12.50;99.90;;;;;;7324628;19;9513;-78
2023/09/16 05:37:23;;;;;;;;;;;12.50;99.90;;;;;;7320226;19;10285;-78
2023/09/16 05:39:54;;;;;;;;;;;12.50;99.90;;;;;;7323489;19;9210;-78
2023/09/16 05:42:23;;;;;;;;;;;12.50;99.90;;;;;;7322543;19;10155;-78
2023/09/16 05:44:52;;;;;;;;;;;12.50;99.90;;;;;;7321656;19;10162;-78
2023/09/16 05:47:21;;;;;;;;;;;12.50;99.90;;;;;;7321032;19;9230;-78
2023/09/16 05:49:50;;;;;;;;;;;12.60;99.90;;;;;;7322192;19;9266;-79
2023/09/16 05:52:19;;;;;;;;;;;12.60;99.90;;;;;;7322608;19;9474;-79
2023/09/16 05:54:48;;;;;;;;;;;12.60;99.90;;;;;;7321993;19;9285;-78
2023/09/16 05:57:19;;;;;;;;;;;12.60;99.90;;;;;;7323009;19;8944;-79
2023/09/16 05:59:48;;;;;;;;;;;12.70;99.90;;;;;;7322971;19;11196;-79
2023/09/16 06:02:39;;;;;;;;;;;12.70;99.90;;;;;;7321314;19;9229;-78
2023/09/16 06:05:10;;;;;;;;;;;12.70;99.90;;;;;;7321146;19;10498;-79
2023/09/16 06:07:42;;;;;;;;;;;12.70;99.90;;;;;;7319114;19;9586;-79
2023/09/16 06:10:12;;;;;;;;;;;12.80;99.90;;;;;;7321778;19;9580;-79
2023/09/16 06:12:46;;;;;;;;;;;12.90;99.90;;;;;;7319316;19;9460;-78
2023/09/16 06:15:15;;;;;;;;;;;12.90;99.90;;;;;;7322043;19;9341;-78
2023/09/16 06:18:06;;;;;;;;;;;13.00;99.90;;;;;;7320677;19;9213;-79
2023/09/16 06:20:35;;;;;;;;;;;13.10;99.90;;;;;;7322357;19;9250;-78
2023/09/16 06:23:04;;;;;;;;;;;13.10;99.90;;;;;;7323002;19;9211;-78
2023/09/16 06:25:34;;;;;;;;;;;13.20;99.90;;;;;;7322742;19;9471;-79
2023/09/16 06:28:06;;;;;;;;;;;13.20;99.90;;;;;;7322837;19;8953;-78
2023/09/16 06:30:35;;;;;;;;;;;13.30;99.90;;;;;;7322041;19;9609;-78
2023/09/16 06:33:04;;;;;;;;;;;13.30;99.90;;;;;;7322406;19;9140;-79
2023/09/16 06:35:33;;;;;;;;;;;13.40;99.90;;;;;;7322218;19;9186;-78
2023/09/16 06:38:02;;;;;;;;;;;13.50;99.90;;;;;;7322770;19;9204;-78
2023/09/16 06:40:31;;;;;;;;;;;13.50;99.90;;;;;;7326530;19;9116;-78
2023/09/16 06:43:00;;;;;;;;;;;13.60;99.90;;;;;;7328252;19;9116;-79
2023/09/16 06:45:31;;;;;;;;;;;13.60;99.90;;;;;;7328149;19;9746;-78
2023/09/16 06:48:00;;;;;;;;;;;13.70;99.90;;;;;;7328688;19;9230;-79
2023/09/16 06:50:29;;;;;;;;;;;13.70;99.90;;;;;;7322987;19;9461;-78
2023/09/16 06:52:58;;;;;;;;;;;13.80;99.90;;;;;;7321629;19;9337;-78
2023/09/16 06:55:28;;;;;;;;;;;13.90;99.90;;;;;;7320889;19;9189;-78
2023/09/16 06:57:57;;;;;;;;;;;13.90;99.90;;;;;;7321150;19;9217;-78
2023/09/16 07:00:26;;;;;;;;;;;14.00;99.90;;;;;;7332246;19;9196;-78
2023/09/16 07:02:58;;;;;;;;;;;14.10;99.90;;;;;;7335077;19;9331;-78
2023/09/16 07:05:31;;;;;;;;;;;14.20;99.90;;;;;;7332611;19;9229;-78
2023/09/16 07:08:00;;;;;;;;;;;14.30;99.90;;;;;;7333044;19;9452;-78
2023/09/16 07:10:29;;;;;;;;;;;14.40;99.90;;;;;;7333944;19;10701;-78
2023/09/16 07:12:58;;;;;;;;;;;14.50;99.90;;;;;;7335613;19;9429;-78
2023/09/16 07:15:27;;;;;;;;;;;14.80;99.90;;;;;;7335323;19;9375;-78
2023/09/16 07:17:58;;;;;;;;;;;15.00;99.90;;;;;;7335080;19;8944;-78
2023/09/16 07:20:27;;;;;;;;;;;15.30;99.90;;;;;;7334803;19;9285;-78
2023/09/16 07:22:57;;;;;;;;;;;15.50;99.90;;;;;;7334394;19;9574;-78
2023/09/16 07:25:26;;;;;;;;;;;15.70;99.90;;;;;;7334040;19;11959;-78
2023/09/16 07:27:55;;;;;;;;;;;16.00;99.90;;;;;;7334630;19;10703;-79
2023/09/16 07:30:24;;;;;;;;;;;16.20;99.90;;;;;;7334164;19;9147;-78
2023/09/16 07:32:53;;;;;;;;;;;16.30;99.90;;;;;;7334271;19;9210;-78
2023/09/16 07:35:25;;;;;;;;;;;16.50;99.90;;;;;;7334794;19;8944;-79
2023/09/16 07:37:54;;;;;;;;;;;16.60;99.90;;;;;;7333813;19;9246;-79
2023/09/16 07:40:23;;;;;;;;;;;16.80;99.90;;;;;;7337382;19;9224;-78
2023/09/16 07:42:52;;;;;;;;;;;16.80;99.90;;;;;;7336093;19;9216;-78
2023/09/16 07:45:20;;;;;;;;;;;16.80;99.90;;;;;;7335131;19;9485;-78
2023/09/16 07:47:50;;;;;;;;;;;16.90;99.90;;;;;;7333044;19;9506;-78
2023/09/16 07:50:19;;;;;;;;;;;16.90;99.90;;;;;;7333302;19;9238;-78
2023/09/16 07:52:51;;;;;;;;;;;17.10;99.90;;;;;;7332214;19;9316;-78
2023/09/16 07:55:41;;;;;;;;;;;17.20;99.90;;;;;;7331399;19;9493;-78
2023/09/16 07:58:10;;;;;;;;;;;17.20;99.90;;;;;;7333675;19;9313;-78
2023/09/16 08:00:39;;;;;;;;;;;17.20;99.90;;;;;;7332139;19;9224;-78
2023/09/16 08:03:08;;;;;;;;;;;17.30;99.90;;;;;;7331558;19;9307;-78
2023/09/16 08:05:38;;;;;;;;;;;17.40;99.90;;;;;;7330049;19;9391;-78
2023/09/16 08:08:10;;;;;;;;;;;17.50;99.90;;;;;;7330724;19;10151;-79
2023/09/16 08:10:39;;;;;;;;;;;17.60;99.90;;;;;;7329167;19;9238;-79
2023/09/16 08:13:08;;;;;;;;;;;17.60;99.90;;;;;;7324462;19;9581;-78
2023/09/16 08:15:37;;;;;;;;;;;17.40;99.90;;;;;;7325141;19;9451;-78
2023/09/16 08:18:06;;;;;;;;;;;17.40;99.90;;;;;;7324811;19;9296;-79
2023/09/16 08:20:56;;;;;;;;;;;17.30;99.90;;;;;;7324330;19;9240;-79
2023/09/16 08:23:27;;;;;;;;;;;17.20;99.90;;;;;;7325411;19;9171;-78
2023/09/16 08:25:56;;;;;;;;;;;17.10;99.90;;;;;;7325086;19;9469;-79
2023/09/16 08:28:25;;;;;;;;;;;17.00;99.90;;;;;;7325399;19;9518;-78
2023/09/16 08:30:54;;;;;;;;;;;17.00;99.90;;;;;;7324502;19;9239;-78
2023/09/16 08:33:23;;;;;;;;;;;17.10;99.90;;;;;;7325674;19;10764;-79
2023/09/16 08:35:52;;;;;;;;;;;17.20;99.90;;;;;;7322949;19;9278;-78
2023/09/16 08:38:21;;;;;;;;;;;17.20;99.90;;;;;;7324544;19;9474;-79
2023/09/16 08:41:12;;;;;;;;;;;17.30;99.90;;;;;;7326295;19;9616;-78
2023/09/16 08:43:42;;;;;;;;;;;17.30;99.90;;;;;;7324294;19;9266;-78
2023/09/16 08:46:17;;;;;;;;;;;17.40;99.90;;;;;;7325047;19;9431;-78
2023/09/16 08:48:51;;;;;;;;;;;17.40;99.90;;;;;;7325257;19;9610;-78
2023/09/16 08:51:24;;;;;;;;;;;17.50;99.90;;;;;;7325114;19;9223;-78
2023/09/16 08:53:54;;;;;;;;;;;17.50;99.90;;;;;;7325733;19;9001;-78
2023/09/16 08:56:26;;;;;;;;;;;17.60;99.90;;;;;;7325027;19;9364;-78
2023/09/16 08:58:58;;;;;;;;;;;17.60;99.90;;;;;;7324460;19;9267;-78
2023/09/16 09:01:28;;;;;;;;;;;17.60;99.90;;;;;;7324986;19;9159;-79
2023/09/16 09:03:59;;;;;;;;;;;17.60;99.90;;;;;;7324364;19;9550;-78
2023/09/16 09:06:31;;;;;;;;;;;17.60;99.90;;;;;;7322274;19;9327;-78
2023/09/16 09:09:20;;;;;;;;;;;17.80;99.90;;;;;;7322500;19;9186;-78
2023/09/16 09:11:52;;;;;;;;;;;18.10;99.90;;;;;;7325589;19;9169;-78
2023/09/16 09:14:22;;;;;;;;;;;18.40;99.90;;;;;;7324786;19;9241;-77
2023/09/16 09:16:54;;;;;;;;;;;18.50;99.90;;;;;;7324201;19;9407;-78
2023/09/16 09:19:23;;;;;;;;;;;18.60;99.90;;;;;;7324048;19;9190;-79
2023/09/16 09:21:56;;;;;;;;;;;18.80;99.90;;;;;;7325920;19;9405;-78
2023/09/16 09:24:25;;;;;;;;;;;19.00;99.90;;;;;;7323470;19;9501;-78
2023/09/16 09:26:56;;;;;;;;;;;19.10;99.90;;;;;;7323393;19;9210;-79
2023/09/16 09:29:25;;;;;;;;;;;19.20;99.90;;;;;;7323130;19;9218;-80
2023/09/16 09:31:56;;;;;;;;;;;19.40;99.90;;;;;;7324136;19;10357;-78
2023/09/16 09:34:29;;;;;;;;;;;19.50;99.90;;;;;;7321355;19;12187;-78
2023/09/16 09:36:58;;;;;;;;;;;19.60;99.90;;;;;;7320130;19;9475;-78
2023/09/16 09:39:27;;;;;;;;;;;19.80;99.90;;;;;;7322825;19;10418;-78
2023/09/16 09:41:59;;;;;;;;;;;19.90;99.90;;;;;;7321583;19;9191;-78
2023/09/16 09:44:28;;;;;;;;;;;20.10;99.90;;;;;;7321087;19;9452;-77
2023/09/16 09:46:57;;;;;;;;;;;20.20;99.90;;;;;;7324351;19;9234;-78
2023/09/16 09:49:26;;;;;;;;;;;20.30;99.90;;;;;;7325346;19;9187;-78
2023/09/16 09:51:55;;;;;;;;;;;20.30;99.90;;;;;;7325799;19;9536;-78
2023/09/16 09:54:25;;;;;;;;;;;20.50;99.90;;;;;;7321463;19;9287;-78
2023/09/16 09:56:54;;;;;;;;;;;20.50;99.90;;;;;;7323726;19;9441;-78
2023/09/16 09:59:26;;;;;;;;;;;20.70;99.90;;;;;;7321881;19;9528;-78
2023/09/16 10:01:55;;;;;;;;;;;20.80;99.90;;;;;;7323846;19;9481;-78
2023/09/16 10:04:25;;;;;;;;;;;20.90;99.90;;;;;;7321328;19;9759;-78
2023/09/16 10:06:56;;;;;;;;;;;21.00;99.90;;;;;;7318068;19;9231;-78
2023/09/16 10:09:25;;;;;;;;;;;21.00;99.90;;;;;;7322926;19;9450;-78
2023/09/16 10:11:54;;;;;;;;;;;20.90;99.90;;;;;;7322746;19;9230;-78
2023/09/16 10:14:26;;;;;;;;;;;21.20;99.90;;;;;;7323000;19;8960;-78
2023/09/16 10:16:56;;;;;;;;;;;21.20;99.90;;;;;;7322703;19;9172;-78
2023/09/16 10:19:25;;;;;;;;;;;21.10;99.90;;;;;;7323275;19;9167;-78
2023/09/16 10:21:55;;;;;;;;;;;21.20;99.90;;;;;;7322689;19;9316;-78
2023/09/16 10:24:24;;;;;;;;;;;21.30;99.90;;;;;;7321925;19;9450;-77
2023/09/16 10:26:56;;;;;;;;;;;21.40;99.90;;;;;;7322703;19;9202;-78
2023/09/16 10:29:32;;;;;;;;;;;21.60;99.90;;;;;;7320500;19;9400;-78
2023/09/16 10:32:01;;;;;;;;;;;21.60;99.90;;;;;;7322425;19;9277;-78
2023/09/16 10:34:33;;;;;;;;;;;21.70;99.90;;;;;;7319724;19;10021;-78
2023/09/16 10:37:02;;;;;;;;;;;21.60;99.90;;;;;;7318331;19;10303;-78
2023/09/16 10:39:35;;;;;;;;;;;21.80;99.90;;;;;;7321967;19;9126;-78
2023/09/16 10:42:05;;;;;;;;;;;21.70;99.90;;;;;;7321410;19;9301;-77
2023/09/16 10:44:37;;;;;;;;;;;21.90;99.90;;;;;;7320897;19;9759;-78
2023/09/16 10:47:07;;;;;;;;;;;22.00;99.90;;;;;;7321750;19;9767;-78
2023/09/16 10:49:36;;;;;;;;;;;22.10;99.90;;;;;;7321151;19;9306;-78
2023/09/16 10:52:07;;;;;;;;;;;22.10;99.90;;;;;;7321264;19;9624;-78
2023/09/16 10:54:44;;;;;;;;;;;22.00;99.90;;;;;;7320951;19;9238;-78
2023/09/16 10:57:23;;;;;;;;;;;22.20;99.90;;;;;;7320170;19;9335;-78
2023/09/16 10:59:56;;;;;;;;;;;22.20;99.90;;;;;;7321851;19;9480;-78
2023/09/16 11:02:34;;;;;;;;;;;22.40;99.90;;;;;;7320095;19;9597;-78
2023/09/16 11:05:04;;;;;;;;;;;22.50;99.90;;;;;;7318666;19;9303;-78
2023/09/16 11:07:34;;;;;;;;;;;22.50;99.90;;;;;;7318130;19;9295;-78
2023/09/16 11:10:05;;;;;;;;;;;22.60;99.90;;;;;;7320861;19;9261;-78
2023/09/16 11:12:35;;;;;;;;;;;22.60;99.90;;;;;;7320570;19;10365;-78
2023/09/16 11:15:11;;;;;;;;;;;22.70;97.30;;;;;;7320160;19;9272;-78
2023/09/16 11:17:42;;;;;;;;;;;22.70;99.00;;;;;;7321200;19;10044;-78
2023/09/16 11:20:14;;;;;;;;;;;22.70;98.20;;;;;;7320549;19;9234;-78
2023/09/16 11:22:47;;;;;;;;;;;22.70;99.90;;;;;;7320479;19;9997;-78
2023/09/16 11:25:17;;;;;;;;;;;22.80;99.80;;;;;;7319436;19;9317;-79
2023/09/16 11:27:47;;;;;;;;;;;22.80;97.90;;;;;;7320021;19;10321;-78
2023/09/16 11:30:17;;;;;;;;;;;22.80;97.50;;;;;;7320928;19;9098;-78
2023/09/16 11:33:10;;;;;;;;;;;23.00;97.90;;;;;;7320160;19;9527;-78
2023/09/16 11:35:40;;;;;;;;;;;23.00;96.40;;;;;;7317791;19;10278;-78
2023/09/16 11:38:29;;;;;;;;;;;23.00;96.30;;;;;;7319110;19;9239;-78
2023/09/16 11:40:59;;;;;;;;;;;23.00;96.80;;;;;;7320481;19;9175;-79
2023/09/16 11:43:28;;;;;;;;;;;23.10;95.90;;;;;;7320294;19;9258;-77
2023/09/16 11:45:59;;;;;;;;;;;23.10;95.80;;;;;;7321980;19;9441;-78
2023/09/16 11:48:29;;;;;;;;;;;23.20;96.80;;;;;;7327325;19;9463;-78
2023/09/16 11:50:58;;;;;;;;;;;23.20;95.20;;;;;;7326407;19;9458;-78
2023/09/16 11:53:27;;;;;;;;;;;23.30;94.50;;;;;;7325598;19;9305;-79
2023/09/16 11:55:56;;;;;;;;;;;23.20;93.90;;;;;;7327788;19;9257;-79
2023/09/16 11:58:26;;;;;;;;;;;23.20;95.10;;;;;;7327430;19;9129;-78
2023/09/16 12:00:55;;;;;;;;;;;23.20;94.90;;;;;;7326708;19;9277;-78
2023/09/16 12:03:26;;;;;;;;;;;23.30;94.80;;;;;;7326675;19;10450;-78
2023/09/16 12:05:56;;;;;;;;;;;23.40;94.30;;;;;;7322170;19;10436;-78
2023/09/16 12:08:26;;;;;;;;;;;23.40;94.50;;;;;;7326804;19;9471;-78
2023/09/16 12:11:15;;;;;;;;;;;23.50;92.90;;;;;;7325016;19;9261;-79
2023/09/16 12:13:44;;;;;;;;;;;23.30;94.60;;;;;;7324684;19;9458;-78
2023/09/16 12:16:14;;;;;;;;;;;23.30;95.30;;;;;;7325373;19;9233;-78
2023/09/16 12:18:47;;;;;;;;;;;23.30;95.60;;;;;;7324596;19;9620;-78
2023/09/16 12:21:16;;;;;;;;;;;23.40;93.10;;;;;;7325850;19;9256;-79
2023/09/16 12:23:47;;;;;;;;;;;23.50;92.60;;;;;;7324530;19;9496;-78
2023/09/16 12:26:17;;;;;;;;;;;23.30;93.20;;;;;;7325825;19;9343;-78
2023/09/16 12:28:46;;;;;;;;;;;23.20;93.40;;;;;;7324619;19;9676;-78
2023/09/16 12:31:15;;;;;;;;;;;23.00;93.40;;;;;;7324273;19;9410;-78
2023/09/16 12:34:06;;;;;;;;;;;23.10;95.60;;;;;;7324037;19;9321;-78
2023/09/16 12:36:35;;;;;;;;;;;23.30;94.50;;;;;;7321083;19;9702;-78
2023/09/16 12:39:05;;;;;;;;;;;23.40;92.70;;;;;;7324345;19;9408;-78
2023/09/16 12:41:36;;;;;;;;;;;23.30;93.70;;;;;;7325280;19;9208;-78
2023/09/16 12:44:05;;;;;;;;;;;23.30;94.00;;;;;;7324855;19;9210;-78
2023/09/16 12:46:34;;;;;;;;;;;23.40;93.00;;;;;;7324444;19;10218;-80
2023/09/16 12:49:09;;;;;;;;;;;23.40;94.20;;;;;;7323741;19;9431;-78
2023/09/16 12:51:41;;;;;;;;;;;23.50;94.70;;;;;;7324659;19;9281;-78
2023/09/16 12:54:10;;;;;;;;;;;23.60;94.70;;;;;;7323651;19;9205;-79
2023/09/16 12:56:39;;;;;;;;;;;23.70;94.60;;;;;;7323702;19;9300;-79
2023/09/16 12:59:08;;;;;;;;;;;23.80;95.10;;;;;;7324016;19;9214;-79
2023/09/16 13:01:37;;;;;;;;;;;23.70;93.60;;;;;;7324744;19;9532;-80
2023/09/16 13:04:10;;;;;;;;;;;23.70;94.70;;;;;;7323094;19;10650;-79
2023/09/16 13:06:40;;;;;;;;;;;23.50;92.30;;;;;;7320407;19;10696;-80
2023/09/16 13:09:31;;;;;;;;;;;23.40;93.00;;;;;;7322406;19;10465;-81
2023/09/16 13:12:00;;;;;;;;;;;23.30;92.40;;;;;;7323987;19;9170;-79
2023/09/16 13:14:49;;;;;;;;;;;23.30;93.00;;;;;;7323442;19;9490;-79
2023/09/16 13:17:19;;;;;;;;;;;23.50;93.90;;;;;;7324723;19;9234;-79
2023/09/16 13:19:51;;;;;;;;;;;23.50;93.10;;;;;;7319876;19;9255;-80
2023/09/16 13:22:20;;;;;;;;;;;23.40;93.00;;;;;;7323156;19;9294;-79
2023/09/16 13:24:49;;;;;;;;;;;23.30;91.70;;;;;;7323295;19;9246;-79
2023/09/16 13:27:21;;;;;;;;;;;23.40;92.00;;;;;;7320925;19;10576;-79
2023/09/16 13:30:01;;;;;;;;;;;23.50;90.20;;;;;;7323503;19;9332;-78
2023/09/16 13:32:30;;;;;;;;;;;23.40;90.40;;;;;;7324338;19;9222;-79
2023/09/16 13:35:01;;;;;;;;;;;23.50;92.00;;;;;;7322201;19;9370;-78
2023/09/16 13:37:32;;;;;;;;;;;23.70;90.30;;;;;;7320511;19;9335;-79
2023/09/16 13:40:02;;;;;;;;;;;23.70;88.60;;;;;;7322863;19;8988;-78
2023/09/16 13:42:31;;;;;;;;;;;23.80;89.40;;;;;;7323650;19;8944;-79
2023/09/16 13:45:02;;;;;;;;;;;23.80;89.70;;;;;;7322486;19;9249;-79
2023/09/16 13:48:08;;;;;;;;;;;23.60;89.40;;;;;;7321606;19;9803;-79
2023/09/16 13:50:42;;;;;;;;;;;23.60;87.80;;;;;;7323666;19;9479;-79
2023/09/16 13:53:15;;;;;;;;;;;23.60;88.10;;;;;;7321750;19;9247;-80
2023/09/16 13:55:45;;;;;;;;;;;23.70;87.80;;;;;;7322266;19;9253;-80
2023/09/16 13:58:15;;;;;;;;;;;23.60;86.90;;;;;;7322771;19;9277;-79
2023/09/16 14:00:44;;;;;;;;;;;23.60;87.50;;;;;;7322898;19;10411;-79
2023/09/16 14:03:13;;;;;;;;;;;23.60;90.00;;;;;;7325007;19;9246;-79
2023/09/16 14:05:42;;;;;;;;;;;23.40;90.40;;;;;;7322025;19;9545;-79
2023/09/16 14:08:11;;;;;;;;;;;23.40;91.60;;;;;;7321081;19;9278;-79
2023/09/16 14:10:40;;;;;;;;;;;23.50;92.00;;;;;;7322505;19;9267;-79
2023/09/16 14:13:09;;;;;;;;;;;23.40;91.80;;;;;;7322445;19;9335;-78
2023/09/16 14:15:40;;;;;;;;;;;23.60;92.60;;;;;;7322856;19;9110;-80
2023/09/16 14:18:11;;;;;;;;;;;23.60;91.80;;;;;;7322090;19;9348;-78
2023/09/16 14:20:40;;;;;;;;;;;23.70;91.60;;;;;;7322166;19;9258;-79
2023/09/16 14:23:12;;;;;;;;;;;23.70;92.10;;;;;;7322664;19;9685;-79
2023/09/16 14:25:40;;;;;;;;;;;23.60;91.20;;;;;;7321921;19;10459;-79
2023/09/16 14:28:09;;;;;;;;;;;23.60;91.30;;;;;;7320905;19;9250;-78
2023/09/16 14:30:38;;;;;;;;;;;23.60;91.50;;;;;;7321659;19;9214;-79
2023/09/16 14:33:07;;;;;;;;;;;23.50;90.60;;;;;;7321755;19;9455;-80
2023/09/16 14:35:37;;;;;;;;;;;23.50;91.40;;;;;;7319197;19;9364;-79
2023/09/16 14:38:06;;;;;;;;;;;23.40;92.90;;;;;;7320260;19;9491;-81
2023/09/16 14:40:37;;;;;;;;;;;23.20;92.70;;;;;;7322246;19;8944;-80
2023/09/16 14:43:27;;;;;;;;;;;22.90;93.30;;;;;;7319923;19;9489;-78
2023/09/16 14:46:00;;;;;;;;;;;22.80;94.30;;;;;;7320839;19;9482;-79
2023/09/16 14:48:29;;;;;;;;;;;22.70;94.60;;;;;;7320543;19;9474;-78
2023/09/16 14:50:58;;;;;;;;;;;22.80;94.70;;;;;;7320864;19;9440;-79
2023/09/16 14:53:27;;;;;;;;;;;22.70;94.80;;;;;;7320788;19;9160;-78